Water Mill, NY (11976)

4:39 AM EST on January 18, 2017 (GMT -0500)
Midtown | | Change Station
Active Advisory: Small Craft Advisory

Elev 82 ft 40.91 °N, 72.34 °W | Updated 3 minutes ago

Rain
Rain
42.6 °F
Feels Like 43 °F
N
1.2
Wind Variable Wind from SSE
Gusts 5.0 mph

Today
High -- | Low -- °F
--% Chance of Precip.
Yesterday
High -- | Low -- °F
Precip. -- in
Pressure 29.88 in
Visibility 4.0 miles
Clouds Overcast 300 ft
Windchill 43 °F
Dew Point 43 °F
Humidity 100%
Rainfall 0.06 in
Snow Depth Not available.
7:10 AM 4:49 PM
Waning Gibbous, 65% visible
METAR KHTO 180915Z AUTO 08009G17KT 4SM BR OVC003 05/05 A2988 RMK AO2 T00510045
Pressure 29.88 in
Visibility 4.0 miles
Clouds Overcast 300 ft
Windchill 43 °F
Dew Point 43 °F
Humidity 100%
Rainfall 0.06 in
Snow Depth Not available.
7:10 AM 4:49 PM
Waning Gibbous, 65% visible
METAR KHTO 180915Z AUTO 08009G17KT 4SM BR OVC003 05/05 A2988 RMK AO2 T00510045

Get Your Daily Forecast Email!

Thanks for signing up!

Be on the lookout for a verification email in your inbox.

You'll start receiving the daily forecast at 8 AM.

×

10-Day Weather Forecast

Almanac

Astronomy

Jan. 18, 2017 Rise Set
Actual Time
Civil Twilight
Nautical Twilight
Astronomical Twilight
Moon
Length of Visible Light
Length of Day
Tomorrow will be .
, % of the Moon is Illuminated

Today's Extremes

State Highs State Lows

Community

WunderPhotos

Upload Photos

1,962,540 photos uploaded!

WunderBlog® & News

Nearby

Air Quality

  Air Quality AQ Index Pollutant
Not available.

Snow Depth

Station Depth Elevation

Earthquake Activity

City Distance Mag. Time & Date
Minimum magnitude displayed is 2.5.

Coastal Water Temperatures

Place Temperature

Stations

Nearby Weather Stations

Station Location Temp. Windchill Dew Point Humidity Wind Precip. Elev Updated Type
                   

Watches & Warnings

Small Craft Advisory
Issued: 9:57 PM EST Jan. 17, 2017 – National Weather Service

... Small Craft Advisory remains in effect from noon to 5 PM EST
Wednesday...

* winds and seas... north winds 15 to 20 kt with gusts up to 25
kt. Seas 3 to 5 feet.

Precautionary/preparedness actions...

A Small Craft Advisory means that sustained wind speeds or
frequent gusts of 25 to 33 kt and/or seas of 5 ft or higher are
expected or occurring... and hazardous to small craft.
Inexperienced mariners... especially those operating smaller
vessels... should avoid navigating in these conditions.